Portada
METAR-TAF:

METAR-TAF

Aeroports :

Baton Rouge, Louisiana, Estats Units d'Amèrica

latitud: 30-32-14N, longitud: 091-08-49W, altitud: 21 m

Observació

L'informe es va fer fa 10 minuts, a les 07:53 UTC
Vent 7 kt del Est
Temperatura 3°C
Humitat 52%
Pressió 1028 hPa
Visibilitat: 16.1 km
Cel clar

METAR: KBTR 220753Z AUTO 08007KT 10SM CLR 03/M06 A3037 RMK AO2 SLP283 T00281056

Hora: 02:03 (08:03 UTC)

Pronòstic

L'informe es va fer fa 2 hores i 38 minuts, a les 05:25 UTC
Pronòstic vàlid del 22 a les 06 UTC al 23 a les 06 UTC
Vent 5 kt del Est/Nord-Est
Visibilitat: 10 km
Cel clar
A partir de les 22 a les 1600 UTC
Vent 7 kt del Est/Sud-Est
Visibilitat: 10 km
Cel ennuvolat a una alçada de 25000 ft
A partir de les 23 a les 0100 UTC
Vent 7 kt del Est/Sud-Est
Visibilitat: 10 km
Cel cobert a una alçada de 2000 ft
xàfecs en les proximitats

TAF: KBTR 220525Z 2206/2306 07005KT P6SM SKC FM221600 11007KT P6SM BKN250 FM230100 11007KT P6SM VCSH OVC020

Observacions i pronòstics meteorològics de més de 4000 aeroports (METAR i TAF).

Les estacions disponibles són els punts grocs i vermells al mapa.

Posi el ratolí al punt desitjat per veure el nom de l'estació.

Feu clic per veure les observacions i els pronòstics meteorològics.

Per canviar el mapa: feu clic els botons verds amb una creu de color negre per apropar; al botó verd amb un guió per allunyar la imatge; o en les fletxes verdes per a mapes adjacents.


METAR-TAF: